Portada
METAR-TAF:

METAR-TAF

Aeroports :

Kuala Terengganu, Malàisia

latitud: 05-22-53N, longitud: 103-06-17E, altitud: 6 m

Observació

L'informe es va fer fa 1 hora i 2 minuts, a les 13:00 UTC
Vent 2 kt amb direcció variable
Temperatura 30°C
Humitat 79%
Pressió 1006 hPa
Visibilitat 10 km o més
Escasses núvols a una alçada de 1700 ft, Cumulonimbus.

METAR: WMKN 141300Z VRB02KT 9999 FEW017CB 30/26 Q1006

Hora: 22:02 (14:02 UTC)

Pronòstic

L'informe es va fer fa 3 hores i 2 minuts, a les 11:00 UTC
Pronòstic vàlid del 14 a les 12 UTC al 15 a les 12 UTC
Vent 3 kt amb direcció variable
Visibilitat 10 km o més
Escasses núvols a una alçada de 2200 ft
Evolucionant progressivament
l' 15 a les 05 UTC al 15 a les 07 UTC
Escasses núvols a una alçada de 1700 ft, Cumulonimbus.

TAF: WMKN 141100Z 1412/1512 VRB03KT 9999 FEW022 BECMG 1505/1507 FEW017CB

Observacions i pronòstics meteorològics de més de 4000 aeroports (METAR i TAF).

Les estacions disponibles són els punts grocs i vermells al mapa.

Posi el ratolí al punt desitjat per veure el nom de l'estació.

Feu clic per veure les observacions i els pronòstics meteorològics.

Per canviar el mapa: feu clic els botons verds amb una creu de color negre per apropar; al botó verd amb un guió per allunyar la imatge; o en les fletxes verdes per a mapes adjacents.


METAR-TAF: